Time;durP1;ratioP1;P1;durP2;ratioP2;P2;SDS_P1;SDS_P2;PMS_P1;PMS_P2;Temp;Humidity;BMP_temperature;BMP_pressure;BME280_temperature;BME280_humidity;BME280_pressure;Samples;Min_cycle;Max_cycle;Signal;HPM_P1;HPM_P2
2024/01/15 00:00:26;;;;;;;212.57;71.27;;;4.40;99.90;;;;;;5103301;28;20232;-80
2024/01/15 00:02:53;;;;;;;204.20;68.87;;;4.40;99.90;;;;;;5101592;28;20233;-81
2024/01/15 00:05:23;;;;;;;191.80;70.00;;;4.40;99.90;;;;;;5087098;28;20220;-81
2024/01/15 00:07:51;;;;;;;195.17;68.40;;;4.40;99.90;;;;;;5120111;28;20284;-78
2024/01/15 00:10:18;;;;;;;253.40;69.70;;;4.40;99.90;;;;;;5094587;28;20292;-81
2024/01/15 00:12:46;;;;;;;392.53;75.20;;;4.40;99.90;;;;;;5103117;28;20264;-81
2024/01/15 00:15:14;;;;;;;195.53;70.40;;;4.40;99.90;;;;;;5103303;28;20204;-80
2024/01/15 00:17:41;;;;;;;185.90;67.90;;;4.40;99.90;;;;;;5124636;27;20208;-80
2024/01/15 00:20:09;;;;;;;171.50;67.77;;;4.40;99.90;;;;;;5106300;28;20613;-81
2024/01/15 00:22:37;;;;;;;363.03;75.17;;;4.40;99.90;;;;;;5086969;28;20271;-80
2024/01/15 00:25:05;;;;;;;442.50;74.17;;;4.40;99.90;;;;;;5097194;28;20208;-80
2024/01/15 00:27:32;;;;;;;233.27;69.27;;;4.30;99.90;;;;;;5096085;28;20213;-80
2024/01/15 00:30:00;;;;;;;363.00;73.77;;;4.40;99.90;;;;;;5100142;28;20716;-81
2024/01/15 00:32:27;;;;;;;417.63;76.37;;;4.40;99.90;;;;;;5077205;28;20196;-80
2024/01/15 00:34:54;;;;;;;226.03;73.37;;;4.30;99.90;;;;;;5105016;28;20211;-80
2024/01/15 00:37:21;;;;;;;264.43;74.67;;;4.30;99.90;;;;;;5098758;28;20204;-80
2024/01/15 00:39:49;;;;;;;206.33;68.77;;;4.40;99.90;;;;;;5097903;28;20624;-80
2024/01/15 00:42:17;;;;;;;264.63;70.37;;;4.30;99.90;;;;;;5081380;28;20208;-80
2024/01/15 00:44:44;;;;;;;192.50;67.80;;;4.30;99.90;;;;;;5100524;28;20217;-80
2024/01/15 00:47:12;;;;;;;204.03;69.13;;;4.40;99.90;;;;;;5085115;28;20213;-81
2024/01/15 00:49:39;;;;;;;214.90;66.90;;;4.40;99.90;;;;;;5103893;28;20289;-81
2024/01/15 00:52:07;;;;;;;211.10;68.07;;;4.40;99.90;;;;;;5101544;28;20199;-81
2024/01/15 00:54:34;;;;;;;177.90;65.53;;;4.40;99.90;;;;;;5085351;28;20212;-81
2024/01/15 00:57:02;;;;;;;287.70;66.77;;;4.40;99.90;;;;;;5083920;28;20273;-81
2024/01/15 00:59:32;;;;;;;307.23;69.00;;;4.40;99.90;;;;;;5104659;28;20207;-80
2024/01/15 01:02:00;;;;;;;243.40;66.33;;;4.40;99.90;;;;;;5099064;28;20203;-80
2024/01/15 01:04:29;;;;;;;225.30;68.80;;;4.40;99.90;;;;;;5082491;28;20234;-80
2024/01/15 01:06:57;;;;;;;244.10;67.43;;;4.40;99.90;;;;;;5105640;28;20227;-80
2024/01/15 01:09:29;;;;;;;240.27;68.20;;;4.30;99.90;;;;;;5081488;28;20221;-80
2024/01/15 01:11:59;;;;;;;203.73;65.57;;;4.30;99.90;;;;;;5094815;28;20204;-80
2024/01/15 01:14:27;;;;;;;176.77;64.53;;;4.30;99.90;;;;;;5096367;28;20223;-80
2024/01/15 01:16:54;;;;;;;223.13;63.83;;;4.30;99.90;;;;;;5093589;28;20197;-80
2024/01/15 01:19:21;;;;;;;200.80;62.67;;;4.30;99.90;;;;;;5097470;28;20208;-80
2024/01/15 01:21:51;;;;;;;197.97;64.30;;;4.30;99.90;;;;;;5117724;28;20210;-80
2024/01/15 01:24:18;;;;;;;259.17;60.77;;;4.30;99.90;;;;;;5099795;28;20197;-80
2024/01/15 01:26:46;;;;;;;194.03;58.87;;;4.30;99.90;;;;;;5088378;28;20207;-80
2024/01/15 01:29:14;;;;;;;181.20;57.07;;;4.20;99.90;;;;;;5102875;28;20276;-80
2024/01/15 01:31:46;;;;;;;163.73;56.47;;;4.30;99.90;;;;;;5113064;28;20227;-81
2024/01/15 01:34:16;;;;;;;199.47;59.57;;;4.20;99.90;;;;;;5082451;28;20228;-81
2024/01/15 01:36:44;;;;;;;214.57;62.93;;;4.20;99.90;;;;;;5106580;28;20190;-80
2024/01/15 01:39:11;;;;;;;186.53;58.67;;;4.10;99.90;;;;;;5083713;28;20312;-81
2024/01/15 01:41:39;;;;;;;182.23;61.57;;;4.10;99.90;;;;;;5101874;28;20222;-80
2024/01/15 01:44:07;;;;;;;167.50;59.93;;;4.10;99.90;;;;;;5079102;28;20208;-80
2024/01/15 01:46:40;;;;;;;149.70;61.17;;;4.10;99.90;;;;;;5101494;28;20193;-80
2024/01/15 01:49:08;;;;;;;156.00;61.00;;;4.10;99.90;;;;;;5104515;28;20242;-80
2024/01/15 01:51:39;;;;;;;149.67;56.77;;;4.10;99.90;;;;;;5114451;28;20263;-80
2024/01/15 01:54:09;;;;;;;192.27;60.27;;;4.10;99.90;;;;;;5100755;28;20283;-81
2024/01/15 01:56:37;;;;;;;178.20;57.60;;;4.10;99.90;;;;;;5080065;28;20224;-80
2024/01/15 01:59:07;;;;;;;152.63;54.73;;;4.10;99.90;;;;;;5096159;28;20303;-80
2024/01/15 02:01:37;;;;;;;178.33;57.30;;;4.00;99.90;;;;;;5106202;28;20208;-80
2024/01/15 02:04:05;;;;;;;144.70;56.50;;;4.00;99.90;;;;;;5081238;28;20204;-81
2024/01/15 02:06:33;;;;;;;127.43;54.83;;;4.10;99.90;;;;;;5088109;28;20200;-80
2024/01/15 02:09:01;;;;;;;129.20;56.50;;;4.00;99.90;;;;;;5065861;28;20204;-80
2024/01/15 02:11:29;;;;;;;134.30;55.00;;;4.00;99.90;;;;;;5089334;28;20221;-80
2024/01/15 02:13:56;;;;;;;127.00;53.97;;;4.00;99.90;;;;;;5077633;28;20204;-80
2024/01/15 02:16:24;;;;;;;138.30;52.20;;;4.00;99.90;;;;;;5110594;28;20199;-80
2024/01/15 02:18:52;;;;;;;128.33;55.87;;;4.00;99.90;;;;;;5119477;28;20251;-81
2024/01/15 02:21:20;;;;;;;131.40;54.47;;;4.00;99.90;;;;;;5116982;28;20280;-80
2024/01/15 02:23:48;;;;;;;144.10;54.30;;;4.00;99.90;;;;;;5090450;28;20265;-81
2024/01/15 02:26:16;;;;;;;122.27;54.23;;;4.00;99.90;;;;;;5105641;28;20200;-80
2024/01/15 02:28:44;;;;;;;123.03;51.87;;;4.00;99.90;;;;;;5101549;28;20277;-80
2024/01/15 02:31:11;;;;;;;156.13;54.63;;;3.90;99.90;;;;;;5087433;28;20224;-80
2024/01/15 02:33:39;;;;;;;119.67;52.87;;;3.90;99.90;;;;;;5106730;28;20219;-80
2024/01/15 02:36:07;;;;;;;126.80;51.27;;;3.90;99.90;;;;;;5106380;28;20211;-81
2024/01/15 02:38:34;;;;;;;129.40;54.50;;;3.90;99.90;;;;;;5093814;28;20205;-80
2024/01/15 02:41:02;;;;;;;135.47;54.47;;;3.90;99.90;;;;;;5115140;28;20197;-80
2024/01/15 02:43:29;;;;;;;126.50;53.80;;;4.00;99.90;;;;;;5107707;28;20207;-80
2024/01/15 02:45:57;;;;;;;127.27;50.93;;;3.90;99.90;;;;;;5100267;28;20271;-80
2024/01/15 02:48:25;;;;;;;124.33;52.83;;;3.90;99.90;;;;;;5115083;28;20239;-80
2024/01/15 02:50:52;;;;;;;123.10;53.97;;;4.00;99.90;;;;;;5106295;28;20215;-80
2024/01/15 02:53:20;;;;;;;137.87;51.43;;;4.00;99.90;;;;;;5089503;28;20208;-80
2024/01/15 02:55:47;;;;;;;124.33;54.67;;;4.00;99.90;;;;;;5109984;28;20211;-80
2024/01/15 02:58:15;;;;;;;128.40;53.40;;;4.00;99.90;;;;;;5105908;28;20698;-80
2024/01/15 03:00:43;;;;;;;146.07;53.07;;;4.00;99.90;;;;;;5104247;28;20239;-79
2024/01/15 03:03:10;;;;;;;115.67;51.00;;;4.00;99.90;;;;;;5100627;28;20201;-80
2024/01/15 03:05:38;;;;;;;121.50;53.37;;;4.00;99.90;;;;;;5085040;28;20290;-80
2024/01/15 03:08:06;;;;;;;127.03;53.53;;;4.00;99.90;;;;;;5086818;28;20215;-79
2024/01/15 03:10:33;;;;;;;124.83;52.03;;;3.90;99.90;;;;;;5099536;28;20285;-80
2024/01/15 03:13:01;;;;;;;125.93;52.87;;;4.00;99.90;;;;;;5099088;28;20225;-80
2024/01/15 03:15:29;;;;;;;119.30;52.10;;;3.90;99.90;;;;;;5095160;28;20207;-80
2024/01/15 03:17:57;;;;;;;133.80;53.93;;;3.90;99.90;;;;;;5076012;28;20208;-80
2024/01/15 03:20:25;;;;;;;114.17;51.37;;;4.00;99.90;;;;;;5098019;28;20298;-80
2024/01/15 03:22:53;;;;;;;122.77;52.90;;;4.00;99.90;;;;;;5083796;28;20231;-80
2024/01/15 03:25:20;;;;;;;119.27;52.17;;;4.00;99.90;;;;;;5102815;28;20642;-80
2024/01/15 03:27:51;;;;;;;119.47;50.37;;;3.90;99.90;;;;;;5099733;28;20192;-80
2024/01/15 03:30:18;;;;;;;124.53;53.03;;;3.90;99.90;;;;;;5093526;28;20282;-81
2024/01/15 03:32:47;;;;;;;107.93;52.77;;;3.90;99.90;;;;;;5084483;28;20216;-80
2024/01/15 03:35:15;;;;;;;108.23;52.10;;;3.90;99.90;;;;;;5092293;28;20242;-80
2024/01/15 03:37:42;;;;;;;111.50;51.30;;;3.90;99.90;;;;;;5104051;28;20673;-80
2024/01/15 03:40:10;;;;;;;107.40;49.53;;;4.00;99.90;;;;;;5097098;27;20206;-80
2024/01/15 03:42:38;;;;;;;107.03;51.17;;;4.00;99.90;;;;;;5084678;28;20527;-80
2024/01/15 03:45:06;;;;;;;105.30;50.77;;;3.90;99.90;;;;;;5099786;28;20192;-81
2024/01/15 03:47:33;;;;;;;105.70;50.20;;;4.00;99.90;;;;;;5097958;28;20346;-81
2024/01/15 03:50:01;;;;;;;113.23;51.17;;;3.90;99.90;;;;;;5094959;28;20211;-80
2024/01/15 03:52:28;;;;;;;106.10;50.77;;;4.00;99.90;;;;;;5094442;27;20240;-81
2024/01/15 03:54:56;;;;;;;113.33;51.00;;;3.90;99.90;;;;;;5104590;28;20196;-80
2024/01/15 03:57:23;;;;;;;107.37;52.57;;;4.00;99.90;;;;;;5108253;28;20292;-80
2024/01/15 03:59:51;;;;;;;95.00;49.67;;;3.90;99.90;;;;;;5080507;28;20611;-80
2024/01/15 04:02:18;;;;;;;99.03;48.80;;;3.90;99.90;;;;;;5101919;28;20200;-80
2024/01/15 04:04:45;;;;;;;97.07;48.40;;;3.90;99.90;;;;;;5105808;28;20636;-80
2024/01/15 04:07:13;;;;;;;96.83;51.20;;;3.90;99.90;;;;;;5101471;28;20253;-80
2024/01/15 04:09:41;;;;;;;99.73;50.83;;;3.90;99.90;;;;;;5082087;28;20231;-81
2024/01/15 04:12:09;;;;;;;98.47;49.27;;;3.90;99.90;;;;;;5107510;28;20284;-80
2024/01/15 04:14:36;;;;;;;92.30;48.63;;;4.00;99.90;;;;;;5100608;28;20200;-80
2024/01/15 04:17:04;;;;;;;92.43;49.30;;;3.90;99.90;;;;;;5102952;28;20215;-80
2024/01/15 04:19:31;;;;;;;95.67;49.07;;;3.90;99.90;;;;;;5099412;28;20198;-81
2024/01/15 04:21:59;;;;;;;94.07;48.70;;;4.00;99.90;;;;;;5103649;28;20200;-80
2024/01/15 04:24:26;;;;;;;90.03;48.07;;;4.00;99.90;;;;;;5098754;28;20624;-80
2024/01/15 04:26:53;;;;;;;86.37;49.33;;;4.00;99.90;;;;;;5093715;28;20650;-80
2024/01/15 04:29:22;;;;;;;95.97;48.93;;;4.00;99.90;;;;;;5097677;28;20224;-81
2024/01/15 04:31:51;;;;;;;98.93;48.93;;;4.00;99.90;;;;;;5097573;28;20231;-80
2024/01/15 04:34:19;;;;;;;83.80;47.23;;;4.00;99.90;;;;;;5102847;28;20225;-80
2024/01/15 04:36:46;;;;;;;88.40;48.33;;;4.00;99.90;;;;;;5084951;28;20203;-80
2024/01/15 04:39:14;;;;;;;84.17;46.40;;;4.00;99.90;;;;;;5103216;28;20196;-81
2024/01/15 04:41:41;;;;;;;83.27;46.93;;;4.10;99.90;;;;;;5108658;28;20203;-80
2024/01/15 04:44:09;;;;;;;89.87;48.50;;;4.10;99.90;;;;;;5103320;28;20211;-80
2024/01/15 04:46:37;;;;;;;89.87;47.53;;;4.00;99.90;;;;;;5099057;28;20200;-80
2024/01/15 04:49:05;;;;;;;83.67;47.30;;;4.10;99.90;;;;;;5083328;28;20239;-80
2024/01/15 04:51:34;;;;;;;80.63;46.63;;;4.10;99.90;;;;;;5092910;28;20255;-80
2024/01/15 04:54:02;;;;;;;83.70;48.10;;;4.10;99.90;;;;;;5103819;28;20189;-80
2024/01/15 04:56:29;;;;;;;83.07;47.23;;;4.10;99.90;;;;;;5101703;28;20201;-80
2024/01/15 04:58:57;;;;;;;91.23;50.13;;;4.10;99.90;;;;;;5086163;28;20208;-80
2024/01/15 05:01:24;;;;;;;83.37;48.00;;;4.10;99.90;;;;;;5077205;28;20205;-80
2024/01/15 05:03:52;;;;;;;87.37;48.93;;;4.10;99.90;;;;;;5091846;28;20219;-80
2024/01/15 05:06:22;;;;;;;82.93;46.23;;;4.10;99.90;;;;;;5083148;28;20200;-81
2024/01/15 05:08:49;;;;;;;87.27;47.13;;;4.20;99.90;;;;;;5107706;28;20208;-80
2024/01/15 05:11:17;;;;;;;80.87;47.57;;;4.20;99.90;;;;;;5086913;28;20216;-80
2024/01/15 05:13:45;;;;;;;85.47;47.37;;;4.20;99.90;;;;;;5085990;28;20210;-80
2024/01/15 05:16:12;;;;;;;80.73;46.23;;;4.20;99.90;;;;;;5101685;28;20204;-80
2024/01/15 05:18:40;;;;;;;81.00;46.70;;;4.20;99.90;;;;;;5097882;28;20240;-79
2024/01/15 05:21:07;;;;;;;95.17;48.30;;;4.20;99.90;;;;;;5097078;28;20210;-79
2024/01/15 05:23:35;;;;;;;86.67;47.10;;;4.30;99.90;;;;;;5105232;28;20227;-80
2024/01/15 05:26:03;;;;;;;84.47;46.90;;;4.30;99.90;;;;;;5084967;28;20212;-79
2024/01/15 05:28:30;;;;;;;83.93;47.63;;;4.20;99.90;;;;;;5082107;28;20216;-80
2024/01/15 05:30:58;;;;;;;81.53;48.13;;;4.20;99.90;;;;;;5104948;28;20321;-79
2024/01/15 05:33:25;;;;;;;91.23;47.27;;;4.20;99.90;;;;;;5086406;28;20208;-81
2024/01/15 05:35:53;;;;;;;86.97;47.87;;;4.20;99.90;;;;;;5100466;28;20206;-80
2024/01/15 05:38:21;;;;;;;88.00;48.53;;;4.30;99.90;;;;;;5086391;28;20213;-79
2024/01/15 05:40:48;;;;;;;86.30;47.30;;;4.20;99.90;;;;;;5096492;28;20234;-80
2024/01/15 05:43:15;;;;;;;81.87;47.73;;;4.30;99.90;;;;;;5100798;28;20251;-81
2024/01/15 05:45:44;;;;;;;86.80;47.67;;;4.30;99.90;;;;;;5100701;28;20316;-78
2024/01/15 05:48:12;;;;;;;85.80;48.37;;;4.30;99.90;;;;;;5101105;28;20324;-80
2024/01/15 05:50:40;;;;;;;89.47;47.27;;;4.30;99.90;;;;;;5073807;28;20232;-79
2024/01/15 05:53:07;;;;;;;92.63;47.23;;;4.30;99.90;;;;;;5081427;27;20639;-79
2024/01/15 05:55:36;;;;;;;93.50;49.57;;;4.30;99.90;;;;;;5082031;28;20211;-79
2024/01/15 05:58:03;;;;;;;96.27;48.40;;;4.20;99.90;;;;;;5098328;28;20208;-80
2024/01/15 06:00:32;;;;;;;101.53;51.93;;;4.10;99.90;;;;;;5087794;28;20212;-80
2024/01/15 06:03:00;;;;;;;96.60;49.07;;;4.10;99.90;;;;;;5079823;28;20210;-79
2024/01/15 06:05:27;;;;;;;108.40;53.27;;;4.10;99.90;;;;;;5076237;28;20207;-80
2024/01/15 06:07:55;;;;;;;106.27;53.27;;;4.10;99.90;;;;;;5101386;28;20642;-78
2024/01/15 06:10:24;;;;;;;109.70;53.07;;;4.10;99.90;;;;;;5106189;28;20633;-80
2024/01/15 06:12:51;;;;;;;109.17;54.57;;;4.10;99.90;;;;;;5098679;28;20204;-78
2024/01/15 06:15:19;;;;;;;104.40;53.10;;;4.10;99.90;;;;;;5104775;28;20268;-80
2024/01/15 06:17:46;;;;;;;110.23;54.30;;;4.10;99.90;;;;;;5103058;28;20202;-78
2024/01/15 06:20:13;;;;;;;104.30;52.90;;;4.20;99.90;;;;;;5121169;28;20199;-79
2024/01/15 06:22:41;;;;;;;95.70;49.63;;;4.20;99.90;;;;;;5102929;27;20661;-78
2024/01/15 06:25:08;;;;;;;111.50;54.10;;;4.20;99.90;;;;;;5119468;27;20239;-78
2024/01/15 06:27:36;;;;;;;107.73;53.77;;;4.20;99.90;;;;;;5093935;28;20650;-79
2024/01/15 06:30:05;;;;;;;115.20;56.43;;;4.20;99.90;;;;;;5097473;28;20520;-80
2024/01/15 06:32:34;;;;;;;107.03;54.70;;;4.20;99.90;;;;;;5086989;28;20236;-79
2024/01/15 06:35:02;;;;;;;104.10;52.17;;;4.20;99.90;;;;;;5098284;28;20225;-80
2024/01/15 06:37:29;;;;;;;106.40;56.13;;;4.20;99.90;;;;;;5105161;28;20223;-81
2024/01/15 06:39:57;;;;;;;105.20;51.83;;;4.30;99.90;;;;;;5107421;28;20196;-81
2024/01/15 06:42:25;;;;;;;109.33;51.97;;;4.30;99.90;;;;;;5071886;28;20210;-81
2024/01/15 06:44:53;;;;;;;102.07;52.83;;;4.30;99.90;;;;;;5105401;28;20211;-81
2024/01/15 06:47:20;;;;;;;105.60;52.03;;;4.30;99.90;;;;;;5092438;28;20667;-81
2024/01/15 06:49:50;;;;;;;104.83;54.30;;;4.30;99.90;;;;;;5101959;28;20189;-79
2024/01/15 06:52:20;;;;;;;105.20;53.93;;;4.40;99.90;;;;;;5106790;28;20228;-80
2024/01/15 06:54:48;;;;;;;103.77;52.57;;;4.40;99.90;;;;;;5083044;28;20203;-80
2024/01/15 06:57:16;;;;;;;102.93;51.90;;;4.40;99.90;;;;;;5097774;28;20208;-80
2024/01/15 06:59:43;;;;;;;102.20;52.57;;;4.40;99.90;;;;;;5107654;28;20201;-81
2024/01/15 07:02:12;;;;;;;98.17;50.57;;;4.40;99.90;;;;;;5100002;28;20209;-81
2024/01/15 07:04:40;;;;;;;110.27;51.63;;;4.40;99.90;;;;;;5098504;28;20295;-80
2024/01/15 07:07:13;;;;;;;107.33;54.47;;;4.50;99.90;;;;;;5090523;28;20242;-80
2024/01/15 07:09:41;;;;;;;105.03;53.60;;;4.40;99.90;;;;;;5099089;28;20215;-81
2024/01/15 07:12:11;;;;;;;101.20;50.30;;;4.40;99.90;;;;;;5117044;28;20217;-81
2024/01/15 07:14:39;;;;;;;99.23;53.40;;;4.50;99.90;;;;;;5091983;28;20204;-81
2024/01/15 07:17:07;;;;;;;96.53;49.77;;;4.50;99.90;;;;;;5101547;28;20212;-81
2024/01/15 07:19:35;;;;;;;93.37;47.90;;;4.50;99.90;;;;;;5104043;28;20315;-80
2024/01/15 07:22:04;;;;;;;94.13;50.40;;;4.50;99.90;;;;;;5087151;28;20216;-81
2024/01/15 07:24:34;;;;;;;86.90;48.67;;;4.50;99.90;;;;;;5088669;28;20201;-81
2024/01/15 07:27:04;;;;;;;99.10;52.03;;;4.60;99.90;;;;;;5104918;28;20215;-81
2024/01/15 07:29:33;;;;;;;94.97;50.53;;;4.50;99.90;;;;;;5106980;28;20228;-81
2024/01/15 07:32:02;;;;;;;93.73;50.50;;;4.60;99.90;;;;;;5084757;28;20208;-81
2024/01/15 07:34:29;;;;;;;95.00;50.10;;;4.60;99.90;;;;;;5103922;28;20214;-81
2024/01/15 07:37:01;;;;;;;92.90;48.70;;;4.60;99.90;;;;;;5102031;28;20208;-81
2024/01/15 07:39:34;;;;;;;84.60;50.57;;;4.60;99.90;;;;;;5116339;28;20210;-81
2024/01/15 07:42:02;;;;;;;86.80;48.60;;;4.60;99.90;;;;;;5086974;28;20229;-80
2024/01/15 07:44:30;;;;;;;99.43;52.10;;;4.60;99.90;;;;;;5105922;28;20209;-80
2024/01/15 07:46:58;;;;;;;95.23;52.33;;;4.60;99.90;;;;;;5098614;28;20257;-81
2024/01/15 07:49:26;;;;;;;98.70;51.40;;;4.60;99.90;;;;;;5082450;28;20241;-80
2024/01/15 07:51:56;;;;;;;88.60;49.90;;;4.60;99.90;;;;;;5071483;28;20307;-81
2024/01/15 07:54:24;;;;;;;94.03;50.17;;;4.60;99.90;;;;;;5062632;28;20243;-81
2024/01/15 07:56:57;;;;;;;93.37;49.47;;;4.60;99.90;;;;;;5082221;28;20204;-80
2024/01/15 07:59:27;;;;;;;88.00;48.73;;;4.60;99.90;;;;;;5075253;28;20193;-80
2024/01/15 08:01:54;;;;;;;88.20;51.33;;;4.70;99.90;;;;;;5076284;28;20553;-80
2024/01/15 08:04:22;;;;;;;94.57;51.23;;;4.70;99.90;;;;;;5098165;28;20208;-80
2024/01/15 08:06:51;;;;;;;90.83;51.03;;;4.70;99.90;;;;;;5062037;28;20206;-81
2024/01/15 08:09:19;;;;;;;90.37;50.93;;;4.70;99.90;;;;;;5066326;28;20232;-81
2024/01/15 08:11:46;;;;;;;92.20;49.30;;;4.70;99.90;;;;;;5076619;28;20218;-80
2024/01/15 08:14:14;;;;;;;90.17;50.13;;;4.80;99.90;;;;;;5095357;28;20211;-81
2024/01/15 08:16:43;;;;;;;88.47;50.73;;;4.80;99.90;;;;;;5087720;28;20205;-80
2024/01/15 08:19:11;;;;;;;91.57;51.47;;;4.80;99.90;;;;;;5092564;28;20192;-81
2024/01/15 08:21:39;;;;;;;88.33;49.00;;;4.80;99.90;;;;;;5094537;28;20676;-80
2024/01/15 08:24:08;;;;;;;90.60;51.37;;;4.80;99.90;;;;;;5065197;28;20220;-80
2024/01/15 08:26:38;;;;;;;92.77;50.23;;;4.80;99.90;;;;;;5084018;28;20649;-81
2024/01/15 08:29:08;;;;;;;94.53;51.40;;;4.80;99.90;;;;;;5098944;28;20231;-80
2024/01/15 08:31:36;;;;;;;90.13;49.77;;;4.80;99.90;;;;;;5099535;28;20218;-81
2024/01/15 08:34:04;;;;;;;92.43;50.83;;;4.90;99.90;;;;;;5097007;28;20305;-80
2024/01/15 08:36:37;;;;;;;87.17;48.73;;;4.90;99.90;;;;;;5095214;28;20209;-80
2024/01/15 08:39:05;;;;;;;89.93;50.57;;;4.90;99.90;;;;;;5077691;28;20201;-80
2024/01/15 08:41:35;;;;;;;101.83;53.03;;;5.00;99.90;;;;;;5077648;28;20232;-80
2024/01/15 08:44:02;;;;;;;91.07;51.97;;;5.00;99.90;;;;;;5095522;28;20204;-80
2024/01/15 08:46:30;;;;;;;95.60;52.47;;;5.10;99.90;;;;;;5093485;28;20197;-79
2024/01/15 08:48:58;;;;;;;103.63;52.40;;;5.10;99.90;;;;;;5103084;28;20260;-80
2024/01/15 08:51:27;;;;;;;98.73;50.80;;;5.10;99.90;;;;;;5112449;28;20543;-81
2024/01/15 08:53:57;;;;;;;99.77;52.53;;;5.10;99.90;;;;;;5092517;28;20286;-80
2024/01/15 08:56:27;;;;;;;98.50;52.33;;;5.10;99.90;;;;;;5088199;28;20229;-80
2024/01/15 08:58:55;;;;;;;97.63;55.17;;;5.10;99.90;;;;;;5082521;28;20197;-80
2024/01/15 09:01:23;;;;;;;96.90;51.23;;;5.10;99.90;;;;;;5090200;28;20271;-81
2024/01/15 09:03:51;;;;;;;104.50;52.50;;;5.10;99.90;;;;;;5076919;28;20268;-80
2024/01/15 09:06:20;;;;;;;99.23;53.67;;;5.10;99.90;;;;;;5101327;28;20243;-80
2024/01/15 09:08:51;;;;;;;96.93;50.17;;;5.10;99.90;;;;;;5094719;28;20204;-80
2024/01/15 09:11:20;;;;;;;108.97;53.20;;;5.10;99.90;;;;;;5079932;28;20196;-80
2024/01/15 09:13:48;;;;;;;96.47;52.50;;;5.10;99.90;;;;;;5097702;28;20201;-80
2024/01/15 09:16:15;;;;;;;103.00;55.23;;;5.10;99.90;;;;;;5079374;28;20200;-81
2024/01/15 09:18:44;;;;;;;108.03;53.13;;;5.10;99.90;;;;;;5088555;28;20189;-81
2024/01/15 09:21:12;;;;;;;106.47;53.30;;;5.20;99.90;;;;;;5088877;28;20211;-80
2024/01/15 09:23:41;;;;;;;108.87;54.27;;;5.20;99.90;;;;;;5097377;28;20197;-80
2024/01/15 09:26:09;;;;;;;101.57;55.10;;;5.20;99.90;;;;;;5098992;28;20197;-80
2024/01/15 09:28:36;;;;;;;106.30;56.87;;;5.20;99.90;;;;;;5103081;28;20192;-80
2024/01/15 09:31:04;;;;;;;119.23;57.37;;;5.30;99.90;;;;;;5116562;28;20191;-80
2024/01/15 09:33:32;;;;;;;108.60;53.50;;;5.30;99.90;;;;;;5092602;28;20220;-80
2024/01/15 09:36:04;;;;;;;109.17;54.70;;;5.40;99.90;;;;;;5078215;28;20201;-80
2024/01/15 09:38:33;;;;;;;109.43;55.90;;;5.40;99.90;;;;;;5104293;28;20640;-81
2024/01/15 09:41:01;;;;;;;116.23;56.33;;;5.40;99.90;;;;;;5084211;28;21215;-80
2024/01/15 09:43:29;;;;;;;131.30;58.57;;;5.50;99.90;;;;;;5103549;28;20207;-82
2024/01/15 09:45:58;;;;;;;128.17;59.67;;;5.60;99.90;;;;;;5093246;28;20243;-81
2024/01/15 09:48:26;;;;;;;125.23;59.40;;;5.60;99.90;;;;;;5077312;28;20233;-81
2024/01/15 09:50:54;;;;;;;127.20;59.40;;;5.70;99.90;;;;;;5101298;28;20287;-81
2024/01/15 09:53:25;;;;;;;121.77;59.70;;;5.70;99.90;;;;;;5098887;28;20281;-81
2024/01/15 09:55:54;;;;;;;120.27;59.47;;;5.80;99.90;;;;;;5099258;28;20196;-80
2024/01/15 09:58:24;;;;;;;114.33;59.00;;;5.90;99.90;;;;;;5099758;28;20483;-81
2024/01/15 10:00:52;;;;;;;122.30;58.13;;;5.90;99.90;;;;;;5091528;28;20205;-79
2024/01/15 10:03:21;;;;;;;112.47;57.20;;;6.00;99.90;;;;;;5087858;28;20205;-81
2024/01/15 10:05:49;;;;;;;105.17;55.70;;;6.10;99.90;;;;;;5097205;28;20197;-79
2024/01/15 10:08:18;;;;;;;112.60;57.80;;;6.20;99.90;;;;;;5096040;28;20208;-80
2024/01/15 10:10:46;;;;;;;101.43;55.70;;;6.20;99.90;;;;;;5095054;28;20209;-80
2024/01/15 10:13:15;;;;;;;111.93;56.50;;;6.30;99.90;;;;;;5081218;28;20304;-80
2024/01/15 10:15:47;;;;;;;105.63;54.23;;;6.30;99.90;;;;;;5101945;28;20200;-80
2024/01/15 10:18:15;;;;;;;104.67;54.27;;;6.30;99.90;;;;;;5082823;28;20287;-81
2024/01/15 10:20:43;;;;;;;99.33;54.23;;;6.40;99.90;;;;;;5086608;28;20288;-80
2024/01/15 10:23:11;;;;;;;91.70;51.33;;;6.40;99.90;;;;;;5093025;28;20225;-80
2024/01/15 10:25:41;;;;;;;96.10;53.47;;;6.50;99.90;;;;;;5100952;28;20287;-81
2024/01/15 10:28:09;;;;;;;83.70;48.67;;;6.60;99.90;;;;;;5071522;28;20209;-79
2024/01/15 10:30:40;;;;;;;93.93;53.10;;;6.60;99.90;;;;;;5088632;27;20200;-80
2024/01/15 10:33:08;;;;;;;85.80;49.50;;;6.70;99.90;;;;;;5098675;28;20224;-79
2024/01/15 10:35:35;;;;;;;93.80;53.03;;;6.80;99.90;;;;;;5082646;28;20201;-79
2024/01/15 10:38:05;;;;;;;91.87;51.40;;;6.90;99.90;;;;;;5101589;28;20196;-80
2024/01/15 10:40:32;;;;;;;86.97;52.27;;;7.00;99.90;;;;;;5102940;28;20202;-80
2024/01/15 10:43:00;;;;;;;93.07;52.33;;;7.20;99.90;;;;;;5084636;28;20211;-80
2024/01/15 10:45:28;;;;;;;81.87;48.17;;;7.40;99.90;;;;;;5074672;28;20526;-80
2024/01/15 10:47:58;;;;;;;81.27;50.97;;;7.50;99.90;;;;;;5070193;28;20262;-79
2024/01/15 10:50:27;;;;;;;79.47;50.23;;;7.70;99.90;;;;;;5090914;28;20252;-80
2024/01/15 10:52:55;;;;;;;86.43;46.87;;;7.80;99.70;;;;;;5096341;28;20244;-80
2024/01/15 10:55:25;;;;;;;73.60;47.47;;;7.90;99.50;;;;;;5096022;28;20227;-79
2024/01/15 10:57:56;;;;;;;73.57;47.43;;;8.00;99.30;;;;;;5071823;28;20640;-80
2024/01/15 11:00:25;;;;;;;75.17;46.80;;;8.20;99.20;;;;;;5093285;28;20232;-80
2024/01/15 11:02:56;;;;;;;75.33;46.37;;;8.30;98.50;;;;;;5092223;28;20201;-81
2024/01/15 11:05:23;;;;;;;72.83;45.63;;;8.40;97.70;;;;;;5092007;28;20204;-80
2024/01/15 11:07:55;;;;;;;68.50;45.80;;;8.40;97.30;;;;;;5085869;28;20271;-80
2024/01/15 11:10:49;;;;;;;72.57;47.87;;;8.50;97.30;;;;;;5074164;28;20207;-79
2024/01/15 11:13:32;;;;;;;67.73;44.13;;;8.70;97.60;;;;;;5094874;28;20280;-80
2024/01/15 11:16:07;;;;;;;72.60;45.80;;;8.90;97.30;;;;;;5091752;28;20207;-82
2024/01/15 11:18:43;;;;;;;63.30;44.23;;;9.00;97.00;;;;;;5093675;28;20198;-80
2024/01/15 11:21:16;;;;;;;71.67;45.47;;;9.10;96.50;;;;;;5071315;28;20536;-80
2024/01/15 11:23:46;;;;;;;65.60;45.97;;;9.20;96.20;;;;;;5090812;28;20202;-81
2024/01/15 11:26:46;;;;;;;67.20;45.00;;;9.20;96.10;;;;;;5090341;28;20201;-80
2024/01/15 11:29:32;;;;;;;66.67;43.93;;;9.20;96.00;;;;;;5091689;28;20207;-81
2024/01/15 11:32:08;;;;;;;67.43;42.23;;;9.20;95.80;;;;;;5097377;28;20666;-81
2024/01/15 11:34:57;;;;;;;68.40;42.07;;;9.20;95.50;;;;;;5088629;28;20640;-80
2024/01/15 11:37:29;;;;;;;72.33;44.47;;;9.20;95.10;;;;;;5089367;28;20201;-80
2024/01/15 11:40:10;;;;;;;64.53;44.87;;;9.20;94.70;;;;;;5077363;28;20614;-80
2024/01/15 11:42:38;;;;;;;68.70;43.87;;;9.10;94.40;;;;;;5097944;28;20607;-81
2024/01/15 11:45:06;;;;;;;67.63;45.10;;;9.10;94.50;;;;;;5073624;28;20660;-81
2024/01/15 11:47:52;;;;;;;72.17;45.17;;;9.10;94.80;;;;;;5092989;28;20237;-80
2024/01/15 11:50:21;;;;;;;66.30;44.93;;;9.20;95.00;;;;;;5100055;28;20207;-80
2024/01/15 11:53:00;;;;;;;68.10;45.30;;;9.20;95.00;;;;;;5086615;28;20210;-81
2024/01/15 11:55:41;;;;;;;64.40;44.47;;;9.30;94.70;;;;;;5090115;28;20537;-80
2024/01/15 11:58:09;;;;;;;63.93;41.63;;;9.30;94.60;;;;;;5094134;28;20397;-80
2024/01/15 12:00:45;;;;;;;66.73;42.93;;;9.40;94.70;;;;;;5076530;28;20695;-81
2024/01/15 12:03:13;;;;;;;59.63;41.03;;;9.40;94.20;;;;;;5071898;28;20229;-80
2024/01/15 12:05:41;;;;;;;66.10;44.47;;;9.40;93.60;;;;;;5099214;28;20202;-81
2024/01/15 12:08:12;;;;;;;65.50;43.17;;;9.40;93.50;;;;;;5085333;28;20185;-81
2024/01/15 12:10:41;;;;;;;62.83;41.87;;;9.40;93.80;;;;;;5092957;28;20203;-81
2024/01/15 12:13:19;;;;;;;65.87;43.67;;;9.40;93.30;;;;;;5103809;28;20210;-80
2024/01/15 12:15:47;;;;;;;64.43;41.87;;;9.30;93.40;;;;;;5075062;28;20305;-81
2024/01/15 12:18:18;;;;;;;63.40;43.97;;;9.40;93.70;;;;;;5077214;28;20210;-80
2024/01/15 12:20:46;;;;;;;60.83;43.23;;;9.40;93.80;;;;;;5087098;28;20201;-81
2024/01/15 12:23:15;;;;;;;65.03;43.97;;;9.50;93.80;;;;;;5102506;28;20285;-81
2024/01/15 12:25:45;;;;;;;57.53;41.10;;;9.50;93.60;;;;;;5085914;28;20206;-80
2024/01/15 12:28:14;;;;;;;57.90;40.33;;;9.60;93.60;;;;;;5096425;28;20606;-81
2024/01/15 12:30:48;;;;;;;60.00;42.77;;;9.60;93.00;;;;;;5074454;28;20205;-82
2024/01/15 12:33:18;;;;;;;59.43;42.67;;;9.60;92.70;;;;;;5077510;28;20222;-80
2024/01/15 12:35:45;;;;;;;55.03;39.10;;;9.60;92.80;;;;;;5097714;28;20240;-81
2024/01/15 12:38:13;;;;;;;63.10;41.93;;;9.60;92.50;;;;;;5092234;28;20653;-81